createdAt,value
2018-08-03T00:00:11.632Z,954.01
2018-08-03T00:02:37.941Z,953.91
2018-08-03T00:05:04.251Z,953.88
2018-08-03T00:07:30.570Z,953.88
2018-08-03T00:09:56.885Z,953.92
2018-08-03T00:12:23.197Z,953.88
2018-08-03T00:14:49.508Z,953.85
2018-08-03T00:17:15.820Z,953.84
2018-08-03T00:19:42.137Z,953.84
2018-08-03T00:22:08.449Z,953.78
2018-08-03T00:24:34.758Z,953.81
2018-08-03T00:27:01.069Z,953.80
2018-08-03T00:29:27.382Z,953.84
2018-08-03T00:31:53.704Z,953.84
2018-08-03T00:34:20.021Z,953.81
2018-08-03T00:36:46.333Z,953.81
2018-08-03T00:39:12.650Z,953.81
2018-08-03T00:41:39.023Z,953.91
2018-08-03T00:44:05.338Z,953.92
2018-08-03T00:46:31.659Z,953.86
2018-08-03T00:48:57.983Z,953.86
2018-08-03T00:51:24.303Z,953.88
2018-08-03T00:53:50.616Z,953.93
2018-08-03T00:56:16.993Z,953.91
2018-08-03T00:58:43.290Z,953.93
2018-08-03T01:01:09.603Z,953.90
2018-08-03T01:03:35.915Z,953.90
2018-08-03T01:06:02.228Z,953.86
2018-08-03T01:08:28.549Z,953.91
2018-08-03T01:10:54.873Z,953.96
2018-08-03T01:13:21.191Z,953.91
2018-08-03T01:15:47.504Z,953.90
2018-08-03T01:18:13.814Z,953.89
2018-08-03T01:20:40.126Z,953.86
2018-08-03T01:23:06.441Z,953.88
2018-08-03T01:25:32.763Z,953.85
2018-08-03T01:27:59.079Z,953.91
2018-08-03T01:30:25.396Z,953.91
2018-08-03T01:32:51.712Z,953.92
2018-08-03T01:35:18.025Z,953.92
2018-08-03T01:37:44.363Z,953.96
2018-08-03T01:40:10.649Z,953.89
2018-08-03T01:42:36.962Z,953.94
2018-08-03T01:45:03.273Z,953.96
2018-08-03T01:47:29.588Z,953.96
2018-08-03T01:49:55.897Z,953.91
2018-08-03T01:52:22.207Z,953.94
2018-08-03T01:54:48.519Z,953.95
2018-08-03T01:57:14.839Z,953.99
2018-08-03T01:59:41.165Z,953.98
2018-08-03T02:02:07.468Z,954.05
2018-08-03T02:04:33.790Z,954.00
2018-08-03T02:07:00.102Z,953.95
2018-08-03T02:09:26.413Z,954.04
2018-08-03T02:11:52.725Z,953.98
2018-08-03T02:14:19.037Z,954.01
2018-08-03T02:16:45.365Z,954.02
2018-08-03T02:19:11.711Z,954.00
2018-08-03T02:21:38.020Z,954.03
2018-08-03T02:24:04.373Z,954.02
2018-08-03T02:26:30.683Z,954.02
2018-08-03T02:28:57.042Z,954.03
2018-08-03T02:31:23.353Z,954.10
2018-08-03T02:33:49.666Z,954.14
2018-08-03T02:36:16.037Z,954.04
2018-08-03T02:38:42.344Z,954.08
2018-08-03T02:41:08.660Z,954.12
2018-08-03T02:43:35.026Z,954.09
2018-08-03T02:46:01.292Z,954.15
2018-08-03T02:48:27.611Z,954.19
2018-08-03T02:50:53.967Z,954.16
2018-08-03T02:53:20.281Z,954.12
2018-08-03T02:55:46.606Z,954.18
2018-08-03T02:58:12.927Z,954.22
2018-08-03T03:00:39.241Z,954.18
2018-08-03T03:03:05.561Z,954.23
2018-08-03T03:05:31.890Z,954.15
2018-08-03T03:07:58.210Z,954.21
2018-08-03T03:10:24.522Z,954.20
2018-08-03T03:12:50.844Z,954.16
2018-08-03T03:15:17.163Z,954.18
2018-08-03T03:17:43.474Z,954.14
2018-08-03T03:20:09.787Z,954.15
2018-08-03T03:22:36.097Z,954.18
2018-08-03T03:25:02.408Z,954.24
2018-08-03T03:27:28.722Z,954.22
2018-08-03T03:29:55.036Z,954.27
2018-08-03T03:32:21.360Z,954.27
2018-08-03T03:34:47.684Z,954.28
2018-08-03T03:37:14.003Z,954.28
2018-08-03T03:39:40.310Z,954.39
2018-08-03T03:42:06.627Z,954.36
2018-08-03T03:44:32.936Z,954.32
2018-08-03T03:46:59.253Z,954.34
2018-08-03T03:49:25.617Z,954.34
2018-08-03T03:51:51.930Z,954.34
2018-08-03T03:54:18.249Z,954.42
2018-08-03T03:56:44.571Z,954.41
2018-08-03T03:59:10.898Z,954.43
2018-08-03T04:01:37.208Z,954.48
2018-08-03T04:04:03.528Z,954.62
2018-08-03T04:06:29.848Z,954.67
2018-08-03T04:08:56.158Z,954.61
2018-08-03T04:11:22.477Z,954.58
2018-08-03T04:13:48.788Z,954.58
2018-08-03T04:16:15.105Z,954.54
2018-08-03T04:18:41.416Z,954.53
2018-08-03T04:21:07.731Z,954.62
2018-08-03T04:23:34.036Z,954.56
2018-08-03T04:26:00.346Z,954.62
2018-08-03T04:28:26.657Z,954.61
2018-08-03T04:30:52.973Z,954.56
2018-08-03T04:33:19.295Z,954.64
2018-08-03T04:35:45.605Z,954.66
2018-08-03T04:38:11.920Z,954.66
2018-08-03T04:40:38.267Z,954.65
2018-08-03T04:43:04.571Z,954.67
2018-08-03T04:45:30.880Z,954.68
2018-08-03T04:47:57.196Z,954.72
2018-08-03T04:50:23.514Z,954.71
2018-08-03T04:52:49.875Z,954.78
2018-08-03T04:55:16.216Z,954.79
2018-08-03T04:57:42.527Z,954.88
2018-08-03T05:00:08.836Z,954.84
2018-08-03T05:02:35.149Z,954.81
2018-08-03T05:05:01.467Z,954.85
2018-08-03T05:07:27.773Z,954.85
2018-08-03T05:09:54.089Z,954.90
2018-08-03T05:12:20.453Z,954.91
2018-08-03T05:14:46.763Z,954.94
2018-08-03T05:17:13.071Z,954.92
2018-08-03T05:19:39.385Z,954.89
2018-08-03T05:22:05.739Z,954.96
2018-08-03T05:24:32.094Z,955.00
2018-08-03T05:26:58.409Z,954.97
2018-08-03T05:29:24.725Z,954.92
2018-08-03T05:31:51.068Z,954.89
2018-08-03T05:34:17.345Z,954.92
2018-08-03T05:36:43.669Z,954.92
2018-08-03T05:39:09.981Z,954.98
2018-08-03T05:41:36.306Z,954.96
2018-08-03T05:44:02.621Z,954.98
2018-08-03T05:46:28.959Z,954.99
2018-08-03T05:48:55.320Z,954.95
2018-08-03T05:51:21.676Z,954.99
2018-08-03T05:53:47.992Z,954.99
2018-08-03T05:56:14.310Z,955.05
2018-08-03T05:58:40.669Z,955.02
2018-08-03T06:01:06.988Z,955.03
2018-08-03T06:03:33.307Z,955.03
2018-08-03T06:05:59.620Z,954.99
2018-08-03T06:08:25.934Z,955.12
2018-08-03T06:10:52.252Z,955.06
2018-08-03T06:13:18.564Z,955.11
2018-08-03T06:15:44.871Z,955.16
2018-08-03T06:18:11.186Z,955.07
2018-08-03T06:20:37.514Z,955.10
2018-08-03T06:23:03.850Z,955.07
2018-08-03T06:25:30.159Z,955.10
2018-08-03T06:27:56.473Z,955.08
2018-08-03T06:30:22.829Z,955.09
2018-08-03T06:32:49.145Z,955.09
2018-08-03T06:35:15.462Z,955.11
2018-08-03T06:37:41.773Z,955.10
2018-08-03T06:40:08.082Z,955.03
2018-08-03T06:42:34.392Z,955.04
2018-08-03T06:45:00.703Z,955.07
2018-08-03T06:47:27.011Z,955.06
2018-08-03T06:49:53.324Z,955.07
2018-08-03T06:52:19.644Z,955.08
2018-08-03T06:54:45.956Z,955.08
2018-08-03T06:57:12.275Z,955.07
2018-08-03T06:59:38.587Z,955.11
2018-08-03T07:02:04.913Z,955.07
2018-08-03T07:04:31.298Z,954.98
2018-08-03T07:06:57.587Z,955.12
2018-08-03T07:09:23.901Z,955.05
2018-08-03T07:11:50.257Z,955.13
2018-08-03T07:14:16.568Z,955.13
2018-08-03T07:16:42.886Z,955.15
2018-08-03T07:19:09.201Z,955.19
2018-08-03T07:21:35.520Z,955.15
2018-08-03T07:24:01.844Z,955.17
2018-08-03T07:26:28.159Z,955.17
2018-08-03T07:28:54.475Z,955.17
2018-08-03T07:31:20.792Z,955.14
2018-08-03T07:33:47.104Z,955.07
2018-08-03T07:36:13.426Z,955.13
2018-08-03T07:38:39.731Z,955.16
2018-08-03T07:41:06.040Z,955.13
2018-08-03T07:43:32.507Z,955.14
2018-08-03T07:45:58.712Z,955.15
2018-08-03T07:48:25.021Z,955.12
2018-08-03T07:50:51.333Z,955.10
2018-08-03T07:53:17.645Z,955.15
2018-08-03T07:55:43.958Z,955.14
2018-08-03T07:58:10.263Z,955.11
2018-08-03T08:00:36.581Z,955.10
2018-08-03T08:03:02.903Z,955.16
2018-08-03T08:05:29.208Z,955.21
2018-08-03T08:07:55.554Z,955.19
2018-08-03T08:10:21.858Z,955.23
2018-08-03T08:12:48.176Z,955.23
2018-08-03T08:15:14.550Z,955.24
2018-08-03T08:17:40.832Z,955.25
2018-08-03T08:20:07.158Z,955.25
2018-08-03T08:22:33.473Z,955.20
2018-08-03T08:24:59.784Z,955.20
2018-08-03T08:27:26.097Z,955.20
2018-08-03T08:29:52.413Z,955.23
2018-08-03T08:32:18.734Z,955.20
2018-08-03T08:34:45.047Z,955.17
2018-08-03T08:37:11.377Z,955.12
2018-08-03T08:39:37.683Z,955.19
2018-08-03T08:42:03.994Z,955.16
2018-08-03T08:44:30.303Z,955.14
2018-08-03T08:46:56.632Z,955.11
2018-08-03T08:49:25.481Z,955.14
2018-08-03T08:51:51.790Z,955.12
2018-08-03T08:54:18.110Z,955.12
2018-08-03T08:56:44.414Z,955.10
2018-08-03T08:59:10.727Z,955.06
2018-08-03T09:01:37.031Z,955.08
2018-08-03T09:04:03.342Z,955.06
2018-08-03T09:06:29.652Z,955.14
2018-08-03T09:08:56.002Z,955.14
2018-08-03T09:11:22.308Z,955.11
2018-08-03T09:13:48.620Z,955.09
2018-08-03T09:16:14.937Z,955.08
2018-08-03T09:18:41.248Z,955.04
2018-08-03T09:21:07.570Z,955.04
2018-08-03T09:23:33.888Z,955.00
2018-08-03T09:26:00.207Z,955.05
2018-08-03T09:28:26.586Z,954.97
2018-08-03T09:30:52.911Z,954.98
2018-08-03T09:33:19.193Z,954.96
2018-08-03T09:35:45.506Z,954.94
2018-08-03T09:38:11.826Z,954.94
2018-08-03T09:40:38.132Z,954.95
2018-08-03T09:43:04.486Z,954.89
2018-08-03T09:45:30.793Z,954.90
2018-08-03T09:47:57.116Z,954.89
2018-08-03T09:50:23.432Z,954.93
2018-08-03T09:52:49.743Z,954.85
2018-08-03T09:55:16.087Z,954.78
2018-08-03T09:57:42.362Z,954.83
2018-08-03T10:00:08.677Z,954.82
2018-08-03T10:02:34.980Z,954.86
2018-08-03T10:05:01.289Z,954.90
2018-08-03T10:07:27.631Z,954.70
2018-08-03T10:09:53.924Z,954.77
2018-08-03T10:12:20.235Z,954.71
2018-08-03T10:14:46.548Z,954.75
2018-08-03T10:17:12.865Z,954.72
2018-08-03T10:19:39.180Z,954.66
2018-08-03T10:22:05.492Z,954.78
2018-08-03T10:24:31.809Z,954.69
2018-08-03T10:26:58.136Z,954.70
2018-08-03T10:29:24.458Z,954.66
2018-08-03T10:31:50.772Z,954.75
2018-08-03T10:34:17.078Z,954.55
2018-08-03T10:36:43.398Z,954.56
2018-08-03T10:39:09.710Z,954.48
2018-08-03T10:41:36.019Z,954.41
2018-08-03T10:44:02.378Z,954.44
2018-08-03T10:46:28.687Z,954.33
2018-08-03T10:48:55.000Z,954.34
2018-08-03T10:51:21.333Z,954.30
2018-08-03T10:53:47.646Z,954.37
2018-08-03T10:56:13.969Z,954.33
2018-08-03T10:58:40.280Z,954.31
2018-08-03T11:01:06.615Z,954.30
2018-08-03T11:03:32.952Z,954.21
2018-08-03T11:05:59.244Z,954.26
2018-08-03T11:08:25.550Z,954.22
2018-08-03T11:10:51.866Z,954.23
2018-08-03T11:13:18.189Z,954.24
2018-08-03T11:15:44.501Z,954.24
2018-08-03T11:18:10.843Z,954.18
2018-08-03T11:20:37.156Z,954.17
2018-08-03T11:23:03.465Z,954.14
2018-08-03T11:25:29.779Z,954.15
2018-08-03T11:27:56.987Z,954.16
2018-08-03T11:30:23.290Z,954.11
2018-08-03T11:32:49.595Z,954.14
2018-08-03T11:35:16.177Z,954.18
2018-08-03T11:37:42.463Z,954.15
2018-08-03T11:40:08.771Z,954.15
2018-08-03T11:42:35.090Z,954.19
2018-08-03T11:45:01.405Z,954.14
2018-08-03T11:47:27.719Z,954.13
2018-08-03T11:49:54.048Z,953.99
2018-08-03T11:52:20.367Z,954.03
2018-08-03T11:54:46.680Z,954.07
2018-08-03T11:57:12.991Z,953.95
2018-08-03T11:59:39.294Z,953.98
2018-08-03T12:02:05.610Z,953.99
2018-08-03T12:04:31.973Z,953.93
2018-08-03T12:06:58.289Z,953.94
2018-08-03T12:09:24.598Z,953.96
2018-08-03T12:11:50.909Z,953.98
2018-08-03T12:14:17.215Z,953.92
2018-08-03T12:16:43.580Z,953.93
2018-08-03T12:19:09.907Z,953.89
2018-08-03T12:21:36.251Z,953.85
2018-08-03T12:24:02.565Z,953.84
2018-08-03T12:26:28.879Z,953.77
2018-08-03T12:28:55.230Z,953.74
2018-08-03T12:31:21.575Z,953.74
2018-08-03T12:33:47.861Z,953.78
2018-08-03T12:36:14.174Z,953.71
2018-08-03T12:38:40.485Z,953.70
2018-08-03T12:41:06.792Z,953.63
2018-08-03T12:43:33.119Z,953.66
2018-08-03T12:45:59.512Z,953.61
2018-08-03T12:48:25.768Z,953.61
2018-08-03T12:50:52.084Z,953.62
2018-08-03T12:53:18.439Z,953.64
2018-08-03T12:55:44.810Z,953.61
2018-08-03T13:06:06.085Z,953.55
2018-08-03T13:08:32.436Z,953.54
2018-08-03T13:10:58.763Z,953.66
2018-08-03T13:13:25.064Z,953.60
2018-08-03T13:15:51.369Z,953.56
2018-08-03T13:18:17.689Z,953.54
2018-08-03T13:20:44.004Z,953.43
2018-08-03T13:23:10.317Z,953.49
2018-08-03T13:25:36.629Z,953.52
2018-08-03T13:28:02.942Z,953.54
2018-08-03T13:30:29.288Z,953.56
2018-08-03T13:32:55.592Z,953.61
2018-08-03T13:35:21.904Z,953.56
2018-08-03T13:37:48.232Z,953.57
2018-08-03T13:40:14.545Z,953.50
2018-08-03T13:42:40.864Z,953.51
2018-08-03T13:45:07.180Z,953.52
2018-08-03T13:47:33.498Z,953.52
2018-08-03T13:49:59.814Z,953.45
2018-08-03T13:52:26.125Z,953.47
2018-08-03T13:54:52.436Z,953.46
2018-08-03T13:57:18.790Z,953.47
2018-08-03T13:59:45.144Z,953.35
2018-08-03T14:02:11.447Z,953.38
2018-08-03T14:04:37.756Z,953.30
2018-08-03T14:07:04.079Z,953.30
2018-08-03T14:09:30.410Z,953.28
2018-08-03T14:11:56.718Z,953.32
2018-08-03T14:14:23.035Z,953.29
2018-08-03T14:16:49.378Z,953.29
2018-08-03T14:19:15.694Z,953.36
2018-08-03T14:21:42.016Z,953.26
2018-08-03T14:24:08.333Z,953.30
2018-08-03T14:26:34.649Z,953.34
2018-08-03T14:29:00.973Z,953.34
2018-08-03T14:31:27.376Z,953.23
2018-08-03T14:33:53.600Z,953.21
2018-08-03T14:36:19.912Z,953.18
2018-08-03T14:38:46.220Z,953.16
2018-08-03T14:41:12.534Z,953.15
2018-08-03T14:43:38.843Z,953.19
2018-08-03T14:46:05.156Z,953.23
2018-08-03T14:48:31.494Z,953.13
2018-08-03T14:50:57.829Z,953.15
2018-08-03T14:53:24.142Z,953.12
2018-08-03T14:55:50.460Z,953.16
2018-08-03T14:58:16.782Z,953.09
2018-08-03T15:00:43.108Z,953.17
2018-08-03T15:03:09.463Z,953.17
2018-08-03T15:05:35.772Z,953.14
2018-08-03T15:08:02.178Z,953.20
2018-08-03T15:10:28.464Z,953.15
2018-08-03T15:12:54.779Z,953.15
2018-08-03T15:15:21.098Z,953.21
2018-08-03T15:17:47.462Z,953.24
2018-08-03T15:20:13.832Z,953.18
2018-08-03T15:22:40.155Z,953.18
2018-08-03T15:25:06.462Z,953.20
2018-08-03T15:27:32.826Z,953.10
2018-08-03T15:29:59.181Z,953.11
2018-08-03T15:32:25.495Z,953.10
2018-08-03T15:34:51.802Z,953.21
2018-08-03T15:37:18.118Z,953.22
2018-08-03T15:39:44.424Z,953.30
2018-08-03T15:42:10.776Z,953.25
2018-08-03T15:44:37.090Z,953.23
2018-08-03T15:47:03.401Z,953.29
2018-08-03T15:49:29.707Z,953.27
2018-08-03T15:51:56.021Z,953.23
2018-08-03T15:54:22.337Z,953.22
2018-08-03T15:56:48.731Z,953.27
2018-08-03T15:59:15.004Z,953.25
2018-08-03T16:01:41.322Z,953.32
2018-08-03T16:04:07.632Z,953.30
2018-08-03T16:06:33.948Z,953.38
2018-08-03T16:09:00.259Z,953.30
2018-08-03T16:11:26.614Z,953.37
2018-08-03T16:13:52.932Z,953.33
2018-08-03T16:16:19.239Z,953.38
2018-08-03T16:18:45.605Z,953.38
2018-08-03T16:21:11.872Z,953.38
2018-08-03T16:23:38.185Z,953.42
2018-08-03T16:26:04.498Z,953.44
2018-08-03T16:28:30.813Z,953.46
2018-08-03T16:30:57.123Z,953.40
2018-08-03T16:33:23.440Z,953.46
2018-08-03T16:35:49.751Z,953.48
2018-08-03T16:38:16.070Z,953.47
2018-08-03T16:40:42.394Z,953.47
2018-08-03T16:43:08.704Z,953.51
2018-08-03T16:45:35.023Z,953.54
2018-08-03T16:48:01.336Z,953.53
2018-08-03T16:50:27.648Z,953.48
2018-08-03T16:52:53.967Z,953.49
2018-08-03T16:55:20.276Z,953.43
2018-08-03T16:57:46.592Z,953.49
2018-08-03T17:00:12.907Z,953.57
2018-08-03T17:02:39.223Z,953.51
2018-08-03T17:05:05.534Z,953.59
2018-08-03T17:07:31.848Z,953.56
2018-08-03T17:09:58.165Z,953.60
2018-08-03T17:12:24.523Z,953.60
2018-08-03T17:14:50.840Z,953.59
2018-08-03T17:17:17.153Z,953.57
2018-08-03T17:19:43.473Z,953.60
2018-08-03T17:22:09.782Z,953.57
2018-08-03T17:24:36.093Z,953.61
2018-08-03T17:27:05.475Z,953.61
2018-08-03T17:29:31.790Z,953.68
2018-08-03T17:31:58.116Z,953.71
2018-08-03T17:34:24.407Z,953.71
2018-08-03T17:36:50.816Z,953.75
2018-08-03T17:39:17.102Z,953.79
2018-08-03T17:41:43.411Z,953.73
2018-08-03T17:44:09.725Z,953.79
2018-08-03T17:46:36.058Z,953.81
2018-08-03T17:49:02.427Z,953.84
2018-08-03T17:51:28.756Z,953.84
2018-08-03T17:53:55.077Z,953.86
2018-08-03T17:56:21.390Z,953.85
2018-08-03T17:58:47.699Z,953.78
2018-08-03T18:01:14.022Z,953.81
2018-08-03T18:03:40.372Z,953.84
2018-08-03T18:06:06.684Z,953.83
2018-08-03T18:08:33.038Z,953.87
2018-08-03T18:10:59.356Z,953.87
2018-08-03T18:13:25.707Z,953.88
2018-08-03T18:15:52.048Z,953.94
2018-08-03T18:18:18.340Z,953.98
2018-08-03T18:20:44.659Z,953.99
2018-08-03T18:23:10.967Z,954.07
2018-08-03T18:25:37.288Z,954.09
2018-08-03T18:28:03.621Z,954.18
2018-08-03T18:30:29.963Z,954.17
2018-08-03T18:32:56.297Z,954.20
2018-08-03T18:35:22.614Z,954.23
2018-08-03T18:37:48.945Z,954.30
2018-08-03T18:40:15.320Z,954.31
2018-08-03T18:42:41.630Z,954.29
2018-08-03T18:45:08.000Z,954.34
2018-08-03T18:47:34.320Z,954.36
2018-08-03T18:50:00.637Z,954.29
2018-08-03T18:52:26.948Z,954.32
2018-08-03T18:54:53.256Z,954.29
2018-08-03T18:57:19.563Z,954.27
2018-08-03T18:59:45.881Z,954.25
2018-08-03T19:02:12.203Z,954.26
2018-08-03T19:04:38.521Z,954.24
2018-08-03T19:07:04.839Z,954.23
2018-08-03T19:09:31.141Z,954.27
2018-08-03T19:11:57.464Z,954.27
2018-08-03T19:14:23.789Z,954.29
2018-08-03T19:16:50.156Z,954.29
2018-08-03T19:19:16.465Z,954.34
2018-08-03T19:21:42.836Z,954.34
2018-08-03T19:24:09.103Z,954.45
2018-08-03T19:26:35.486Z,954.45
2018-08-03T19:29:01.971Z,954.37
2018-08-03T19:31:28.439Z,954.41
2018-08-03T19:33:54.765Z,954.42
2018-08-03T19:36:21.147Z,954.37
2018-08-03T19:38:47.489Z,954.40
2018-08-03T19:41:13.860Z,954.40
2018-08-03T19:43:40.286Z,954.44
2018-08-03T19:46:06.665Z,954.39
2018-08-03T19:48:33.082Z,954.35
2018-08-03T19:50:59.454Z,954.39
2018-08-03T19:53:25.885Z,954.45
2018-08-03T19:55:52.190Z,954.41
2018-08-03T19:58:18.495Z,954.35
2018-08-03T20:00:44.800Z,954.30
2018-08-03T20:03:11.107Z,954.31
2018-08-03T20:05:37.419Z,954.36
2018-08-03T20:08:03.720Z,954.33
2018-08-03T20:10:30.072Z,954.37
2018-08-03T20:12:56.379Z,954.37
2018-08-03T20:15:22.733Z,954.39
2018-08-03T20:17:49.048Z,954.40
2018-08-03T20:20:15.365Z,954.34
2018-08-03T20:22:41.727Z,954.40
2018-08-03T20:25:08.038Z,954.36
2018-08-03T20:27:34.359Z,954.43
2018-08-03T20:30:00.678Z,954.42
2018-08-03T20:32:26.987Z,954.38
2018-08-03T20:34:53.303Z,954.39
2018-08-03T20:37:19.610Z,954.35
2018-08-03T20:39:45.964Z,954.38
2018-08-03T20:42:12.346Z,954.35
2018-08-03T20:44:38.696Z,954.41
2018-08-03T20:47:04.966Z,954.43
2018-08-03T20:49:31.280Z,954.42
2018-08-03T20:51:57.622Z,954.48
2018-08-03T20:54:23.933Z,954.58
2018-08-03T20:56:50.242Z,954.60
2018-08-03T20:59:16.552Z,954.60
2018-08-03T21:01:42.863Z,954.45
2018-08-03T21:04:09.172Z,954.58
2018-08-03T21:06:35.484Z,954.58
2018-08-03T21:09:01.792Z,954.63
2018-08-03T21:11:28.111Z,954.57
2018-08-03T21:13:54.486Z,954.56
2018-08-03T21:16:20.798Z,954.63
2018-08-03T21:18:47.111Z,954.66
2018-08-03T21:21:13.420Z,954.70
2018-08-03T21:23:39.743Z,954.69
2018-08-03T21:26:06.066Z,954.68
2018-08-03T21:28:32.378Z,954.60
2018-08-03T21:30:58.698Z,954.64
2018-08-03T21:33:25.010Z,954.72
2018-08-03T21:35:51.321Z,954.74
2018-08-03T21:38:17.673Z,954.84
2018-08-03T21:40:43.988Z,954.82
2018-08-03T21:43:10.295Z,954.77
2018-08-03T21:45:36.658Z,954.79
2018-08-03T21:48:03.005Z,954.71
2018-08-03T21:50:29.321Z,954.70
2018-08-03T21:52:55.695Z,954.75
2018-08-03T21:55:21.963Z,954.81
2018-08-03T21:57:48.287Z,954.82
2018-08-03T22:00:14.634Z,954.84
2018-08-03T22:02:40.947Z,954.89
2018-08-03T22:05:07.255Z,954.88
2018-08-03T22:07:33.647Z,954.85
2018-08-03T22:09:59.979Z,954.88
2018-08-03T22:12:26.316Z,954.83
2018-08-03T22:14:52.670Z,954.81
2018-08-03T22:17:18.995Z,954.84
2018-08-03T22:19:45.327Z,954.87
2018-08-03T22:22:11.666Z,954.85
2018-08-03T22:24:37.982Z,954.91
2018-08-03T22:27:04.321Z,954.87
2018-08-03T22:29:30.637Z,954.84
2018-08-03T22:31:56.938Z,954.84
2018-08-03T22:34:23.242Z,954.79
2018-08-03T22:36:49.555Z,954.82
2018-08-03T22:39:15.863Z,954.85
2018-08-03T22:41:42.176Z,954.81
2018-08-03T22:44:08.479Z,954.83
2018-08-03T22:46:34.787Z,954.77
2018-08-03T22:49:01.097Z,954.77
2018-08-03T22:51:27.403Z,954.75
2018-08-03T22:53:53.719Z,954.69
2018-08-03T22:56:20.024Z,954.68
2018-08-03T22:58:46.337Z,954.65
2018-08-03T23:01:12.667Z,954.60
2018-08-03T23:03:39.017Z,954.64
2018-08-03T23:06:05.342Z,954.60
2018-08-03T23:08:31.650Z,954.57
2018-08-03T23:10:57.960Z,954.59
2018-08-03T23:13:24.263Z,954.56
2018-08-03T23:15:50.574Z,954.53
2018-08-03T23:18:16.885Z,954.53
2018-08-03T23:20:43.200Z,954.59
2018-08-03T23:23:09.516Z,954.62
2018-08-03T23:25:35.832Z,954.59
2018-08-03T23:28:02.140Z,954.56
2018-08-03T23:30:28.451Z,954.53
2018-08-03T23:32:54.758Z,954.52
2018-08-03T23:35:21.075Z,954.54
2018-08-03T23:37:47.392Z,954.55
2018-08-03T23:40:13.707Z,954.53
2018-08-03T23:42:40.020Z,954.48
2018-08-03T23:45:06.332Z,954.47
2018-08-03T23:47:32.683Z,954.49
2018-08-03T23:49:58.961Z,954.48
2018-08-03T23:52:25.278Z,954.50
2018-08-03T23:54:51.588Z,954.44
2018-08-03T23:57:17.939Z,954.45
2018-08-03T23:59:44.257Z,954.49
